createdAt,value
2018-11-06T00:00:49.544Z,15.37
2018-11-06T00:03:28.293Z,15.53
2018-11-06T00:05:56.449Z,19.03
2018-11-06T00:08:24.546Z,18.07
2018-11-06T00:10:52.706Z,17.23
2018-11-06T00:13:20.895Z,16.33
2018-11-06T00:15:49.061Z,15.87
2018-11-06T00:18:17.261Z,16.07
2018-11-06T00:20:45.453Z,15.23
2018-11-06T00:23:13.524Z,14.83
2018-11-06T00:25:41.669Z,15.27
2018-11-06T00:28:09.871Z,14.27
2018-11-06T00:30:37.997Z,14.07
2018-11-06T00:33:06.226Z,14.83
2018-11-06T00:35:34.333Z,14.47
2018-11-06T00:38:02.505Z,14.27
2018-11-06T00:40:31.085Z,13.73
2018-11-06T00:42:59.231Z,14.53
2018-11-06T00:45:27.346Z,15.27
2018-11-06T00:47:55.471Z,15.30
2018-11-06T00:50:23.617Z,15.03
2018-11-06T00:52:51.649Z,13.80
2018-11-06T00:55:19.797Z,13.70
2018-11-06T00:57:47.919Z,14.13
2018-11-06T01:00:17.220Z,14.77
2018-11-06T01:02:45.968Z,15.80
2018-11-06T01:05:14.908Z,14.57
2018-11-06T01:07:43.950Z,14.70
2018-11-06T01:10:12.247Z,15.47
2018-11-06T01:12:40.650Z,16.67
2018-11-06T01:15:11.158Z,16.80
2018-11-06T01:17:39.482Z,16.70
2018-11-06T01:20:11.164Z,24.93
2018-11-06T01:22:40.282Z,23.17
2018-11-06T01:25:09.092Z,26.43
2018-11-06T01:27:37.569Z,36.57
2018-11-06T01:30:10.670Z,28.97
2018-11-06T01:32:38.932Z,23.20
2018-11-06T01:35:08.524Z,35.83
2018-11-06T01:37:36.655Z,33.67
2018-11-06T01:40:06.707Z,25.97
2018-11-06T01:42:34.826Z,22.20
2018-11-06T01:45:05.187Z,17.93
2018-11-06T01:47:33.370Z,15.13
2018-11-06T01:50:01.482Z,18.77
2018-11-06T01:52:29.638Z,22.90
2018-11-06T01:54:57.818Z,28.50
2018-11-06T01:57:26.018Z,26.80
2018-11-06T01:59:55.433Z,26.30
2018-11-06T02:02:23.666Z,24.20
2018-11-06T02:04:51.751Z,21.33
2018-11-06T02:07:19.927Z,23.43
2018-11-06T02:09:49.019Z,21.43
2018-11-06T02:12:17.176Z,27.80
2018-11-06T02:14:45.608Z,25.80
2018-11-06T02:17:14.584Z,23.13
2018-11-06T02:19:42.792Z,20.37
2018-11-06T02:22:10.944Z,18.33
2018-11-06T02:24:39.058Z,20.43
2018-11-06T02:27:07.181Z,20.03
2018-11-06T02:29:35.294Z,14.93
2018-11-06T02:32:03.588Z,14.60
2018-11-06T02:34:31.794Z,13.03
2018-11-06T02:36:59.981Z,13.30
2018-11-06T02:39:28.148Z,15.03
2018-11-06T02:41:56.287Z,14.07
2018-11-06T02:44:24.486Z,15.50
2018-11-06T02:46:52.763Z,17.43
2018-11-06T02:49:20.934Z,15.50
2018-11-06T02:51:49.286Z,16.50
2018-11-06T02:54:17.419Z,23.13
2018-11-06T02:56:45.495Z,18.67
2018-11-06T02:59:13.570Z,19.40
2018-11-06T03:01:41.824Z,18.17
2018-11-06T03:04:09.987Z,20.77
2018-11-06T03:06:38.058Z,21.30
2018-11-06T03:09:07.129Z,21.57
2018-11-06T03:11:35.332Z,18.90
2018-11-06T03:14:03.638Z,19.73
2018-11-06T03:16:31.794Z,17.23
2018-11-06T03:19:00.021Z,15.37
2018-11-06T03:21:28.245Z,20.57
2018-11-06T03:23:56.440Z,16.20
2018-11-06T03:26:24.603Z,21.60
2018-11-06T03:28:52.851Z,14.87
2018-11-06T03:31:21.130Z,17.83
2018-11-06T03:33:49.290Z,15.07
2018-11-06T03:36:17.393Z,15.67
2018-11-06T03:38:45.547Z,16.03
2018-11-06T03:41:13.731Z,12.30
2018-11-06T03:43:41.871Z,13.60
2018-11-06T03:46:09.995Z,11.80
2018-11-06T03:48:38.111Z,11.80
2018-11-06T03:51:06.828Z,11.60
2018-11-06T03:53:34.966Z,14.27
2018-11-06T03:56:03.194Z,13.87
2018-11-06T03:58:31.405Z,16.07
2018-11-06T04:00:59.555Z,14.67
2018-11-06T04:03:27.792Z,15.73
2018-11-06T04:05:55.915Z,17.17
2018-11-06T04:08:24.071Z,13.80
2018-11-06T04:10:52.157Z,15.00
2018-11-06T04:13:20.338Z,19.87
2018-11-06T04:15:48.520Z,12.90
2018-11-06T04:18:16.644Z,16.97
2018-11-06T04:20:44.813Z,17.93
2018-11-06T04:23:13.080Z,15.23
2018-11-06T04:25:41.303Z,17.70
2018-11-06T04:28:09.571Z,20.13
2018-11-06T04:30:37.703Z,17.80
2018-11-06T04:33:05.815Z,15.17
2018-11-06T04:35:34.055Z,16.50
2018-11-06T04:38:02.300Z,17.83
2018-11-06T04:40:30.534Z,17.40
2018-11-06T04:43:04.260Z,19.23
2018-11-06T04:45:32.394Z,17.47
2018-11-06T04:48:00.596Z,14.53
2018-11-06T04:50:28.748Z,15.23
2018-11-06T04:52:56.843Z,16.27
2018-11-06T04:55:25.013Z,15.70
2018-11-06T04:57:53.200Z,13.90
2018-11-06T05:00:21.364Z,15.63
2018-11-06T05:02:49.618Z,14.50
2018-11-06T05:05:17.776Z,15.50
2018-11-06T05:07:45.915Z,14.27
2018-11-06T05:10:14.589Z,18.70
2018-11-06T05:12:43.189Z,19.93
2018-11-06T05:15:12.727Z,18.57
2018-11-06T05:17:40.821Z,19.57
2018-11-06T05:20:12.260Z,17.37
2018-11-06T05:22:40.598Z,16.93
2018-11-06T05:25:09.088Z,15.90
2018-11-06T05:27:37.631Z,16.07
2018-11-06T05:30:06.886Z,18.97
2018-11-06T05:32:35.129Z,15.93
2018-11-06T05:35:03.720Z,16.60
2018-11-06T05:37:31.991Z,14.07
2018-11-06T05:40:49.605Z,17.07
2018-11-06T05:43:17.809Z,19.53
2018-11-06T05:45:47.661Z,14.20
2018-11-06T05:48:16.311Z,12.67
2018-11-06T05:50:44.534Z,13.57
2018-11-06T05:53:12.951Z,13.13
2018-11-06T05:55:41.269Z,13.83
2018-11-06T05:58:10.174Z,13.00
2018-11-06T06:00:38.488Z,17.00
2018-11-06T06:06:06.127Z,14.03
2018-11-06T06:08:34.610Z,17.67
2018-11-06T06:11:02.918Z,15.50
2018-11-06T06:13:31.477Z,18.10
2018-11-06T06:15:59.599Z,21.90
2018-11-06T06:18:27.785Z,24.20
2018-11-06T06:20:55.929Z,15.10
2018-11-06T06:23:24.804Z,15.27
2018-11-06T06:25:53.512Z,14.60
2018-11-06T06:28:21.749Z,16.20
2018-11-06T06:30:51.496Z,15.50
2018-11-06T06:33:19.799Z,15.03
2018-11-06T06:35:47.950Z,14.17
2018-11-06T06:38:16.211Z,14.53
2018-11-06T06:40:45.021Z,14.67
2018-11-06T06:43:13.125Z,12.77
2018-11-06T06:45:41.355Z,15.23
2018-11-06T06:48:09.521Z,15.67
2018-11-06T06:50:37.692Z,17.03
2018-11-06T06:53:05.975Z,16.73
2018-11-06T06:55:34.143Z,14.67
2018-11-06T06:58:02.345Z,14.17
2018-11-06T07:00:30.501Z,13.30
2018-11-06T07:02:58.700Z,12.53
2018-11-06T07:05:26.905Z,12.30
2018-11-06T07:07:55.565Z,12.80
2018-11-06T07:10:23.687Z,12.67
2018-11-06T07:12:51.924Z,14.83
2018-11-06T07:15:25.796Z,13.60
2018-11-06T07:17:53.899Z,13.10
2018-11-06T07:20:25.002Z,12.17
2018-11-06T07:22:53.175Z,12.87
2018-11-06T07:25:21.384Z,13.30
2018-11-06T07:27:49.586Z,11.60
2018-11-06T07:30:19.253Z,12.23
2018-11-06T07:32:47.526Z,12.20
2018-11-06T07:35:16.415Z,11.47
2018-11-06T07:37:45.007Z,14.20
2018-11-06T07:40:14.347Z,15.87
2018-11-06T07:42:42.536Z,14.90
2018-11-06T07:45:16.155Z,13.53
2018-11-06T07:47:44.420Z,16.50
2018-11-06T07:50:13.930Z,16.90
2018-11-06T07:52:42.298Z,13.13
2018-11-06T07:55:15.391Z,12.83
2018-11-06T07:57:43.578Z,12.80
2018-11-06T08:00:18.613Z,12.63
2018-11-06T08:02:47.727Z,11.33
2018-11-06T08:05:16.315Z,12.10
2018-11-06T08:07:45.333Z,11.43
2018-11-06T08:10:14.180Z,12.07
2018-11-06T08:12:48.815Z,12.20
2018-11-06T08:15:17.094Z,12.33
2018-11-06T08:17:45.775Z,12.70
2018-11-06T08:20:14.096Z,12.17
2018-11-06T08:22:47.263Z,12.73
2018-11-06T08:25:16.138Z,11.57
2018-11-06T08:27:44.860Z,11.77
2018-11-06T08:30:13.353Z,12.13
2018-11-06T08:32:42.134Z,11.33
2018-11-06T08:35:15.960Z,12.70
2018-11-06T08:37:44.150Z,12.40
2018-11-06T08:40:14.653Z,12.87
2018-11-06T08:42:42.802Z,12.53
2018-11-06T08:45:12.999Z,12.70
2018-11-06T08:47:42.174Z,12.07
2018-11-06T08:50:12.866Z,13.33
2018-11-06T08:52:41.374Z,13.20
2018-11-06T08:55:10.727Z,12.13
2018-11-06T08:57:39.263Z,13.53
2018-11-06T09:00:10.935Z,13.33
2018-11-06T09:02:39.441Z,13.00
2018-11-06T09:05:09.832Z,13.53
2018-11-06T09:07:38.302Z,13.27
2018-11-06T09:10:08.075Z,14.13
2018-11-06T09:12:37.946Z,13.40
2018-11-06T09:15:08.267Z,12.40
2018-11-06T09:17:37.117Z,13.63
2018-11-06T09:20:06.125Z,12.57
2018-11-06T09:22:35.006Z,12.43
2018-11-06T09:25:03.418Z,12.70
2018-11-06T09:27:31.609Z,11.27
2018-11-06T09:29:59.782Z,12.50
2018-11-06T09:32:28.186Z,12.43
2018-11-06T09:34:56.335Z,13.50
2018-11-06T09:37:24.556Z,12.10
2018-11-06T09:39:52.690Z,11.40
2018-11-06T09:42:21.048Z,12.23
2018-11-06T09:44:55.527Z,11.67
2018-11-06T09:47:23.653Z,11.53
2018-11-06T09:49:51.865Z,12.30
2018-11-06T09:52:34.043Z,11.17
2018-11-06T09:55:02.264Z,11.30
2018-11-06T09:57:31.255Z,11.90
2018-11-06T09:59:59.469Z,11.43
2018-11-06T10:02:28.049Z,11.03
2018-11-06T10:04:56.929Z,11.50
2018-11-06T10:07:25.324Z,11.90
2018-11-06T10:09:53.309Z,11.10
2018-11-06T10:12:50.558Z,10.57
2018-11-06T10:15:21.590Z,10.87
2018-11-06T10:17:50.692Z,10.80
2018-11-06T10:20:19.777Z,10.37
2018-11-06T10:22:52.967Z,11.30
2018-11-06T10:25:21.143Z,10.30
2018-11-06T10:27:49.312Z,10.60
2018-11-06T10:30:18.737Z,10.30
2018-11-06T10:32:46.984Z,9.97
2018-11-06T10:35:15.108Z,9.73
2018-11-06T10:37:43.311Z,9.03
2018-11-06T10:40:17.933Z,9.57
2018-11-06T10:42:46.581Z,10.07
2018-11-06T10:45:15.128Z,9.37
2018-11-06T10:47:43.309Z,9.07
2018-11-06T10:50:12.624Z,9.33
2018-11-06T10:52:41.213Z,8.70
2018-11-06T10:55:09.784Z,9.00
2018-11-06T10:57:39.123Z,9.07
2018-11-06T11:00:17.074Z,8.30
2018-11-06T11:02:51.039Z,8.73
2018-11-06T11:05:20.294Z,8.90
2018-11-06T11:07:48.536Z,8.40
2018-11-06T11:10:16.754Z,8.50
2018-11-06T11:12:54.305Z,8.73
2018-11-06T11:15:22.476Z,8.57
2018-11-06T11:17:52.048Z,8.00
2018-11-06T11:20:20.889Z,8.90
2018-11-06T11:22:54.760Z,8.53
2018-11-06T11:25:22.962Z,8.53
2018-11-06T11:27:51.152Z,8.77
2018-11-06T11:30:19.241Z,9.10
2018-11-06T11:32:48.030Z,9.10
2018-11-06T11:35:16.197Z,8.87
2018-11-06T11:37:44.516Z,7.90
2018-11-06T11:40:13.799Z,8.60
2018-11-06T11:42:42.140Z,8.37
2018-11-06T11:45:11.672Z,9.73
2018-11-06T11:47:40.135Z,8.13
2018-11-06T11:50:10.408Z,8.30
2018-11-06T11:52:39.230Z,7.93
2018-11-06T11:55:07.789Z,8.13
2018-11-06T11:57:35.935Z,8.57
2018-11-06T12:00:05.070Z,7.80
2018-11-06T12:02:33.339Z,8.47
2018-11-06T12:05:01.485Z,8.47
2018-11-06T12:07:29.688Z,7.77
2018-11-06T12:09:57.882Z,8.20
2018-11-06T12:12:31.777Z,7.97
2018-11-06T12:14:59.965Z,7.47
2018-11-06T12:17:28.199Z,7.47
2018-11-06T12:19:56.265Z,8.17
2018-11-06T12:22:24.310Z,7.90
2018-11-06T12:24:52.684Z,7.30
2018-11-06T12:27:20.628Z,7.40
2018-11-06T12:29:48.780Z,7.47
2018-11-06T12:32:16.982Z,7.77
2018-11-06T12:34:45.195Z,7.40
2018-11-06T12:37:13.549Z,7.53
2018-11-06T12:39:41.691Z,7.40
2018-11-06T12:42:14.978Z,7.57
2018-11-06T12:44:43.339Z,6.77
2018-11-06T12:47:11.525Z,7.10
2018-11-06T12:49:39.624Z,7.83
2018-11-06T12:52:07.747Z,7.30
2018-11-06T12:54:36.001Z,7.73
2018-11-06T12:57:04.582Z,8.13
2018-11-06T12:59:32.728Z,8.33
2018-11-06T13:02:00.895Z,8.00
2018-11-06T13:04:29.056Z,7.67
2018-11-06T13:06:57.167Z,6.30
2018-11-06T13:09:25.365Z,7.07
2018-11-06T13:11:58.624Z,6.90
2018-11-06T13:14:26.780Z,7.10
2018-11-06T13:16:54.963Z,7.40
2018-11-06T13:19:23.850Z,6.77
2018-11-06T13:22:06.329Z,6.93
2018-11-06T13:24:34.527Z,7.00
2018-11-06T13:27:02.672Z,7.03
2018-11-06T13:29:30.896Z,6.57
2018-11-06T13:31:59.099Z,7.43
2018-11-06T13:34:27.236Z,6.77
2018-11-06T13:36:55.365Z,7.10
2018-11-06T13:39:23.608Z,7.10
2018-11-06T13:41:51.723Z,6.97
2018-11-06T13:44:20.207Z,6.57
2018-11-06T13:46:48.121Z,7.20
2018-11-06T13:49:16.268Z,6.80
2018-11-06T13:51:44.404Z,6.93
2018-11-06T13:54:12.549Z,6.67
2018-11-06T13:56:40.725Z,6.60
2018-11-06T13:59:08.835Z,6.70
2018-11-06T14:01:37.041Z,7.27
2018-11-06T14:04:05.478Z,7.03
2018-11-06T14:06:34.859Z,7.00
2018-11-06T14:09:03.674Z,8.37
2018-11-06T14:11:31.851Z,8.73
2018-11-06T14:13:59.999Z,7.47
2018-11-06T14:16:28.136Z,8.20
2018-11-06T14:18:56.264Z,7.70
2018-11-06T14:21:24.413Z,7.90
2018-11-06T14:23:52.567Z,7.77
2018-11-06T14:26:20.793Z,8.13
2018-11-06T14:28:48.975Z,7.83
2018-11-06T14:31:17.117Z,7.40
2018-11-06T14:33:45.223Z,7.57
2018-11-06T14:36:13.407Z,7.70
2018-11-06T14:38:41.985Z,7.63
2018-11-06T14:41:10.187Z,7.37
2018-11-06T14:43:38.317Z,7.00
2018-11-06T14:46:07.644Z,7.73
2018-11-06T14:48:35.895Z,7.87
2018-11-06T14:51:04.173Z,6.93
2018-11-06T14:53:32.342Z,7.00
2018-11-06T14:56:00.610Z,7.57
2018-11-06T14:58:28.662Z,7.07
2018-11-06T15:00:56.816Z,7.47
2018-11-06T15:03:25.154Z,7.87
2018-11-06T15:05:53.316Z,8.50
2018-11-06T15:08:21.547Z,9.00
2018-11-06T15:10:49.611Z,8.93
2018-11-06T15:13:27.332Z,17.47
2018-11-06T15:15:55.539Z,12.20
2018-11-06T15:18:24.481Z,18.67
2018-11-06T15:20:53.747Z,12.07
2018-11-06T15:23:22.259Z,11.80
2018-11-06T15:25:50.468Z,12.63
2018-11-06T15:28:18.655Z,12.33
2018-11-06T15:30:46.851Z,12.57
2018-11-06T15:33:16.417Z,9.03
2018-11-06T15:35:44.621Z,9.53
2018-11-06T15:38:12.773Z,10.23
2018-11-06T15:40:44.735Z,11.97
2018-11-06T15:43:13.172Z,12.90
2018-11-06T15:45:41.485Z,11.90
2018-11-06T15:48:09.640Z,17.93
2018-11-06T15:50:37.837Z,11.40
2018-11-06T15:53:06.315Z,11.70
2018-11-06T15:55:34.517Z,11.27
2018-11-06T15:58:03.375Z,11.20
2018-11-06T16:00:31.695Z,9.73
2018-11-06T16:03:00.102Z,9.57
2018-11-06T16:05:28.280Z,8.90
2018-11-06T16:07:56.517Z,12.83
2018-11-06T16:10:24.598Z,10.57
2018-11-06T16:12:53.044Z,18.77
2018-11-06T16:15:21.308Z,19.43
2018-11-06T16:17:49.531Z,23.97
2018-11-06T16:20:19.847Z,15.43
2018-11-06T16:22:48.090Z,11.20
2018-11-06T16:25:17.195Z,10.33
2018-11-06T16:27:45.805Z,12.10
2018-11-06T16:30:15.337Z,10.17
2018-11-06T16:32:43.837Z,10.63
2018-11-06T16:35:14.502Z,13.30
2018-11-06T16:37:44.032Z,15.50
2018-11-06T16:40:12.810Z,17.33
2018-11-06T16:42:42.213Z,18.63
2018-11-06T16:45:14.879Z,20.10
2018-11-06T16:47:43.950Z,21.27
2018-11-06T16:50:13.484Z,17.73
2018-11-06T16:52:41.878Z,19.07
2018-11-06T16:55:10.615Z,16.03
2018-11-06T16:57:40.041Z,16.33
2018-11-06T17:00:10.907Z,15.37
2018-11-06T17:02:39.430Z,16.73
2018-11-06T17:05:08.557Z,17.60
2018-11-06T17:07:36.724Z,16.53
2018-11-06T17:10:07.380Z,14.93
2018-11-06T17:12:40.515Z,13.17
2018-11-06T17:15:13.150Z,14.17
2018-11-06T17:17:41.539Z,12.07
2018-11-06T17:20:11.220Z,15.53
2018-11-06T17:22:39.522Z,14.67
2018-11-06T17:25:10.400Z,12.80
2018-11-06T17:27:38.810Z,12.43
2018-11-06T17:30:08.946Z,16.73
2018-11-06T17:32:38.424Z,16.47
2018-11-06T17:35:08.869Z,13.47
2018-11-06T17:37:37.787Z,13.13
2018-11-06T17:40:10.812Z,16.67
2018-11-06T17:42:39.267Z,17.10
2018-11-06T17:45:10.953Z,14.90
2018-11-06T17:47:40.529Z,16.20
2018-11-06T17:50:10.786Z,14.57
2018-11-06T17:52:39.193Z,15.00
2018-11-06T17:55:10.430Z,14.60
2018-11-06T17:57:38.940Z,14.60
2018-11-06T18:00:11.932Z,16.17
2018-11-06T18:02:40.428Z,17.47
2018-11-06T18:05:09.493Z,17.80
2018-11-06T18:07:38.135Z,15.93
2018-11-06T18:10:08.943Z,16.47
2018-11-06T18:12:42.698Z,13.10
2018-11-06T18:15:10.829Z,12.77
2018-11-06T18:17:39.781Z,14.40
2018-11-06T18:20:09.104Z,17.57
2018-11-06T18:22:37.439Z,14.77
2018-11-06T18:25:06.180Z,15.67
2018-11-06T18:27:34.333Z,13.90
2018-11-06T18:30:02.540Z,12.73
2018-11-06T18:32:30.770Z,13.13
2018-11-06T18:34:58.985Z,12.50
2018-11-06T18:37:27.256Z,12.57
2018-11-06T18:39:55.499Z,11.63
2018-11-06T18:42:23.670Z,11.77
2018-11-06T18:44:51.870Z,11.97
2018-11-06T18:47:20.195Z,16.50
2018-11-06T18:49:48.331Z,14.37
2018-11-06T18:52:16.462Z,16.57
2018-11-06T18:54:44.645Z,13.33
2018-11-06T18:57:12.936Z,15.77
2018-11-06T18:59:41.073Z,16.67
2018-11-06T19:02:09.598Z,12.53
2018-11-06T19:04:37.824Z,13.03
2018-11-06T19:07:06.486Z,17.17
2018-11-06T19:09:34.684Z,15.13
2018-11-06T19:12:02.982Z,23.40
2018-11-06T19:14:31.271Z,18.73
2018-11-06T19:16:59.598Z,14.57
2018-11-06T19:19:27.764Z,12.30
2018-11-06T19:21:56.278Z,14.10
2018-11-06T19:24:24.453Z,14.40
2018-11-06T19:26:53.748Z,15.97
2018-11-06T19:29:21.953Z,15.67
2018-11-06T19:31:50.095Z,14.80
2018-11-06T19:34:19.258Z,15.87
2018-11-06T19:36:47.672Z,18.90
2018-11-06T19:39:15.952Z,18.87
2018-11-06T19:41:44.173Z,24.40
2018-11-06T19:44:12.431Z,52.10
2018-11-06T19:46:40.806Z,53.90
2018-11-06T19:49:08.956Z,44.40
2018-11-06T19:51:37.263Z,22.90
2018-11-06T19:54:05.535Z,21.70
2018-11-06T19:56:33.673Z,15.57
2018-11-06T19:59:01.903Z,13.73
2018-11-06T20:01:30.876Z,15.53
2018-11-06T20:03:59.066Z,18.47
2018-11-06T20:06:27.296Z,15.33
2018-11-06T20:08:55.502Z,15.33
2018-11-06T20:11:23.764Z,13.80
2018-11-06T20:13:51.882Z,13.20
2018-11-06T20:16:20.104Z,13.47
2018-11-06T20:18:48.558Z,13.43
2018-11-06T20:21:16.961Z,14.87
2018-11-06T20:23:45.227Z,14.87
2018-11-06T20:26:13.512Z,14.53
2018-11-06T20:28:41.897Z,16.53
2018-11-06T20:31:10.110Z,14.77
2018-11-06T20:33:38.488Z,13.37
2018-11-06T20:36:06.586Z,13.23
2018-11-06T20:38:34.802Z,13.50
2018-11-06T20:41:03.621Z,13.20
2018-11-06T20:43:31.850Z,14.20
2018-11-06T20:46:00.061Z,13.80
2018-11-06T20:48:28.249Z,12.97
2018-11-06T20:50:56.467Z,12.87
2018-11-06T20:53:24.768Z,12.97
2018-11-06T20:55:53.052Z,12.87
2018-11-06T20:58:21.244Z,11.40
2018-11-06T21:00:49.369Z,11.00
2018-11-06T21:03:18.595Z,12.03
2018-11-06T21:05:46.901Z,12.73
2018-11-06T21:08:15.120Z,13.53
2018-11-06T21:10:43.331Z,13.77
2018-11-06T21:13:11.625Z,13.97
2018-11-06T21:15:39.768Z,14.53
2018-11-06T21:18:08.093Z,15.83
2018-11-06T21:20:36.969Z,13.47
2018-11-06T21:23:05.242Z,12.57
2018-11-06T21:25:33.542Z,11.80
2018-11-06T21:28:01.554Z,12.23
2018-11-06T21:30:29.682Z,12.43
2018-11-06T21:32:58.036Z,12.57
2018-11-06T21:35:26.261Z,13.37
2018-11-06T21:37:54.382Z,13.33
2018-11-06T21:40:22.616Z,11.50
2018-11-06T21:42:51.043Z,12.23
2018-11-06T21:45:19.349Z,11.60
2018-11-06T21:47:48.687Z,12.33
2018-11-06T21:50:17.176Z,13.80
2018-11-06T21:52:45.582Z,13.70
2018-11-06T21:55:14.900Z,13.07
2018-11-06T21:57:43.157Z,13.37
2018-11-06T22:00:13.505Z,12.17
2018-11-06T22:02:41.673Z,12.67
2018-11-06T22:05:11.258Z,12.90
2018-11-06T22:07:39.980Z,12.80
2018-11-06T22:10:10.393Z,13.00
2018-11-06T22:12:39.208Z,12.33
2018-11-06T22:15:08.890Z,14.83
2018-11-06T22:17:38.602Z,14.80
2018-11-06T22:20:08.693Z,13.20
2018-11-06T22:22:37.047Z,12.03
2018-11-06T22:25:05.731Z,13.30
2018-11-06T22:27:33.966Z,20.20
2018-11-06T22:30:02.138Z,19.60
2018-11-06T22:32:30.556Z,15.40
2018-11-06T22:34:59.088Z,13.93
2018-11-06T22:37:27.272Z,13.20
2018-11-06T22:39:55.350Z,15.43
2018-11-06T22:42:23.784Z,16.13
2018-11-06T22:44:51.984Z,12.50
2018-11-06T22:47:20.080Z,14.17
2018-11-06T22:49:48.193Z,13.17
2018-11-06T22:52:26.110Z,13.20
2018-11-06T22:54:54.262Z,13.17
2018-11-06T22:57:22.437Z,14.13
2018-11-06T22:59:50.545Z,13.90
2018-11-06T23:02:18.757Z,13.47
2018-11-06T23:04:46.920Z,12.40
2018-11-06T23:07:20.760Z,12.87
2018-11-06T23:09:48.884Z,12.57
2018-11-06T23:12:17.091Z,12.40
2018-11-06T23:14:45.256Z,12.47
2018-11-06T23:17:13.361Z,14.03
2018-11-06T23:19:41.546Z,12.23
2018-11-06T23:22:09.742Z,14.10
2018-11-06T23:24:37.856Z,13.77
2018-11-06T23:27:06.029Z,13.63
2018-11-06T23:29:34.195Z,13.03
2018-11-06T23:32:02.810Z,14.47
2018-11-06T23:34:30.951Z,14.17
2018-11-06T23:36:59.120Z,15.17
2018-11-06T23:39:27.293Z,13.40
2018-11-06T23:41:55.418Z,12.20
2018-11-06T23:44:23.740Z,12.20
2018-11-06T23:46:52.013Z,10.80
2018-11-06T23:49:20.279Z,10.63
2018-11-06T23:51:48.563Z,10.17
2018-11-06T23:54:17.343Z,10.93
2018-11-06T23:56:45.475Z,10.27
2018-11-06T23:59:13.621Z,10.47
